sensor_id;sensor_type;location;lat;lon;timestamp;P1;durP1;ratioP1;P2;durP2;ratioP2
61741;SDS011;47650;49.848;9.620;2022-10-26T00:03:31;60.22;;;12.82;;
61741;SDS011;47650;49.848;9.620;2022-10-26T00:06:01;55.60;;;12.63;;
61741;SDS011;47650;49.848;9.620;2022-10-26T00:08:55;42.38;;;11.55;;
61741;SDS011;47650;49.848;9.620;2022-10-26T00:11:21;79.20;;;11.98;;
61741;SDS011;47650;49.848;9.620;2022-10-26T00:13:48;21.17;;;10.27;;
61741;SDS011;47650;49.848;9.620;2022-10-26T00:16:15;20.80;;;10.00;;
61741;SDS011;47650;49.848;9.620;2022-10-26T00:18:42;25.65;;;9.88;;
61741;SDS011;47650;49.848;9.620;2022-10-26T00:21:08;26.00;;;11.52;;
61741;SDS011;47650;49.848;9.620;2022-10-26T00:23:36;15.75;;;10.00;;
61741;SDS011;47650;49.848;9.620;2022-10-26T00:26:02;20.00;;;10.15;;
61741;SDS011;47650;49.848;9.620;2022-10-26T00:28:27;20.02;;;11.43;;
61741;SDS011;47650;49.848;9.620;2022-10-26T00:30:53;17.98;;;10.85;;
61741;SDS011;47650;49.848;9.620;2022-10-26T00:33:18;23.08;;;10.82;;
61741;SDS011;47650;49.848;9.620;2022-10-26T00:35:47;16.15;;;9.95;;
61741;SDS011;47650;49.848;9.620;2022-10-26T00:38:16;22.02;;;10.15;;
61741;SDS011;47650;49.848;9.620;2022-10-26T00:40:42;23.35;;;11.90;;
61741;SDS011;47650;49.848;9.620;2022-10-26T00:43:11;15.02;;;9.23;;
61741;SDS011;47650;49.848;9.620;2022-10-26T00:45:56;15.98;;;10.00;;
61741;SDS011;47650;49.848;9.620;2022-10-26T00:48:27;14.20;;;9.60;;
61741;SDS011;47650;49.848;9.620;2022-10-26T00:50:57;14.40;;;10.77;;
61741;SDS011;47650;49.848;9.620;2022-10-26T00:53:27;16.13;;;10.02;;
61741;SDS011;47650;49.848;9.620;2022-10-26T00:55:53;19.80;;;11.77;;
61741;SDS011;47650;49.848;9.620;2022-10-26T00:58:20;17.80;;;11.07;;
61741;SDS011;47650;49.848;9.620;2022-10-26T01:00:46;31.02;;;15.02;;
61741;SDS011;47650;49.848;9.620;2022-10-26T01:03:13;16.35;;;11.52;;
61741;SDS011;47650;49.848;9.620;2022-10-26T01:05:40;21.38;;;13.55;;
61741;SDS011;47650;49.848;9.620;2022-10-26T01:08:07;15.20;;;10.55;;
61741;SDS011;47650;49.848;9.620;2022-10-26T01:10:33;20.55;;;10.63;;
61741;SDS011;47650;49.848;9.620;2022-10-26T01:13:01;17.17;;;12.35;;
61741;SDS011;47650;49.848;9.620;2022-10-26T01:15:36;21.40;;;13.27;;
61741;SDS011;47650;49.848;9.620;2022-10-26T01:18:14;20.02;;;12.70;;
61741;SDS011;47650;49.848;9.620;2022-10-26T01:32:38;14.85;;;8.48;;
61741;SDS011;47650;49.848;9.620;2022-10-26T01:35:30;15.48;;;9.52;;
61741;SDS011;47650;49.848;9.620;2022-10-26T01:38:03;12.43;;;8.57;;
61741;SDS011;47650;49.848;9.620;2022-10-26T01:40:35;14.38;;;9.60;;
61741;SDS011;47650;49.848;9.620;2022-10-26T01:43:06;15.25;;;9.57;;
61741;SDS011;47650;49.848;9.620;2022-10-26T01:45:34;14.43;;;9.93;;
61741;SDS011;47650;49.848;9.620;2022-10-26T01:48:04;13.27;;;10.05;;
61741;SDS011;47650;49.848;9.620;2022-10-26T01:50:32;19.05;;;13.07;;
61741;SDS011;47650;49.848;9.620;2022-10-26T01:52:58;11.93;;;9.50;;
61741;SDS011;47650;49.848;9.620;2022-10-26T02:07:21;11.40;;;8.10;;
61741;SDS011;47650;49.848;9.620;2022-10-26T02:12:25;10.73;;;7.73;;
61741;SDS011;47650;49.848;9.620;2022-10-26T02:15:07;12.13;;;7.13;;
61741;SDS011;47650;49.848;9.620;2022-10-26T02:17:48;13.52;;;8.20;;
61741;SDS011;47650;49.848;9.620;2022-10-26T02:20:21;7.85;;;7.05;;
61741;SDS011;47650;49.848;9.620;2022-10-26T02:22:51;12.05;;;9.20;;
61741;SDS011;47650;49.848;9.620;2022-10-26T02:25:21;11.65;;;7.10;;
61741;SDS011;47650;49.848;9.620;2022-10-26T02:27:50;11.82;;;8.63;;
61741;SDS011;47650;49.848;9.620;2022-10-26T02:30:19;10.45;;;8.10;;
61741;SDS011;47650;49.848;9.620;2022-10-26T02:32:50;18.52;;;11.73;;
61741;SDS011;47650;49.848;9.620;2022-10-26T02:35:19;12.27;;;8.20;;
61741;SDS011;47650;49.848;9.620;2022-10-26T02:37:47;9.57;;;7.72;;
61741;SDS011;47650;49.848;9.620;2022-10-26T02:40:18;12.63;;;7.38;;
61741;SDS011;47650;49.848;9.620;2022-10-26T02:42:46;12.45;;;8.63;;
61741;SDS011;47650;49.848;9.620;2022-10-26T02:45:17;11.07;;;7.40;;
61741;SDS011;47650;49.848;9.620;2022-10-26T02:47:47;14.95;;;9.07;;
61741;SDS011;47650;49.848;9.620;2022-10-26T02:50:18;9.27;;;6.82;;
61741;SDS011;47650;49.848;9.620;2022-10-26T02:52:50;13.43;;;9.18;;
61741;SDS011;47650;49.848;9.620;2022-10-26T02:55:26;14.65;;;8.25;;
61741;SDS011;47650;49.848;9.620;2022-10-26T02:57:59;17.60;;;8.95;;
61741;SDS011;47650;49.848;9.620;2022-10-26T03:00:28;14.02;;;7.55;;
61741;SDS011;47650;49.848;9.620;2022-10-26T03:02:56;12.57;;;8.13;;
61741;SDS011;47650;49.848;9.620;2022-10-26T03:05:26;12.15;;;7.78;;
61741;SDS011;47650;49.848;9.620;2022-10-26T03:07:54;11.35;;;7.50;;
61741;SDS011;47650;49.848;9.620;2022-10-26T03:10:20;15.65;;;7.93;;
61741;SDS011;47650;49.848;9.620;2022-10-26T03:12:46;15.52;;;8.57;;
61741;SDS011;47650;49.848;9.620;2022-10-26T03:15:11;13.18;;;8.95;;
61741;SDS011;47650;49.848;9.620;2022-10-26T03:17:37;15.82;;;9.57;;
61741;SDS011;47650;49.848;9.620;2022-10-26T03:20:03;14.25;;;7.28;;
61741;SDS011;47650;49.848;9.620;2022-10-26T03:22:28;12.85;;;7.57;;
61741;SDS011;47650;49.848;9.620;2022-10-26T03:24:54;10.65;;;7.50;;
61741;SDS011;47650;49.848;9.620;2022-10-26T03:27:19;14.32;;;9.75;;
61741;SDS011;47650;49.848;9.620;2022-10-26T03:29:44;16.92;;;10.25;;
61741;SDS011;47650;49.848;9.620;2022-10-26T03:32:10;10.60;;;8.45;;
61741;SDS011;47650;49.848;9.620;2022-10-26T03:34:35;12.95;;;8.40;;
61741;SDS011;47650;49.848;9.620;2022-10-26T03:37:00;12.00;;;7.57;;
61741;SDS011;47650;49.848;9.620;2022-10-26T03:39:27;15.52;;;8.27;;
61741;SDS011;47650;49.848;9.620;2022-10-26T03:41:52;18.27;;;11.63;;
61741;SDS011;47650;49.848;9.620;2022-10-26T03:44:19;16.38;;;10.00;;
61741;SDS011;47650;49.848;9.620;2022-10-26T03:46:44;16.13;;;11.35;;
61741;SDS011;47650;49.848;9.620;2022-10-26T03:49:09;12.05;;;8.95;;
61741;SDS011;47650;49.848;9.620;2022-10-26T03:51:35;13.85;;;9.00;;
61741;SDS011;47650;49.848;9.620;2022-10-26T03:54:01;16.58;;;11.68;;
61741;SDS011;47650;49.848;9.620;2022-10-26T03:56:28;14.98;;;10.20;;
61741;SDS011;47650;49.848;9.620;2022-10-26T03:58:54;14.98;;;11.65;;
61741;SDS011;47650;49.848;9.620;2022-10-26T04:01:20;18.05;;;12.82;;
61741;SDS011;47650;49.848;9.620;2022-10-26T04:03:45;21.77;;;16.02;;
61741;SDS011;47650;49.848;9.620;2022-10-26T04:06:11;25.45;;;15.93;;
61741;SDS011;47650;49.848;9.620;2022-10-26T04:08:36;27.85;;;18.27;;
61741;SDS011;47650;49.848;9.620;2022-10-26T04:11:03;34.42;;;20.48;;
61741;SDS011;47650;49.848;9.620;2022-10-26T04:13:28;30.98;;;19.95;;
61741;SDS011;47650;49.848;9.620;2022-10-26T04:15:53;25.63;;;18.27;;
61741;SDS011;47650;49.848;9.620;2022-10-26T04:18:19;33.28;;;19.50;;
61741;SDS011;47650;49.848;9.620;2022-10-26T04:20:44;27.33;;;16.80;;
61741;SDS011;47650;49.848;9.620;2022-10-26T04:23:11;30.08;;;18.98;;
61741;SDS011;47650;49.848;9.620;2022-10-26T04:25:40;20.85;;;16.60;;
61741;SDS011;47650;49.848;9.620;2022-10-26T04:28:07;28.70;;;20.40;;
61741;SDS011;47650;49.848;9.620;2022-10-26T04:30:34;23.02;;;16.95;;
61741;SDS011;47650;49.848;9.620;2022-10-26T04:33:00;20.17;;;15.02;;
61741;SDS011;47650;49.848;9.620;2022-10-26T04:35:26;21.95;;;16.50;;
61741;SDS011;47650;49.848;9.620;2022-10-26T04:38:03;31.42;;;16.98;;
61741;SDS011;47650;49.848;9.620;2022-10-26T04:40:30;26.27;;;16.95;;
61741;SDS011;47650;49.848;9.620;2022-10-26T04:42:56;27.42;;;18.63;;
61741;SDS011;47650;49.848;9.620;2022-10-26T04:45:23;23.35;;;16.98;;
61741;SDS011;47650;49.848;9.620;2022-10-26T04:48:05;34.90;;;20.77;;
61741;SDS011;47650;49.848;9.620;2022-10-26T04:50:32;26.27;;;18.30;;
61741;SDS011;47650;49.848;9.620;2022-10-26T04:52:58;26.70;;;19.33;;
61741;SDS011;47650;49.848;9.620;2022-10-26T04:55:24;21.08;;;15.90;;
61741;SDS011;47650;49.848;9.620;2022-10-26T04:57:52;38.88;;;20.85;;
61741;SDS011;47650;49.848;9.620;2022-10-26T05:00:19;29.40;;;19.55;;
61741;SDS011;47650;49.848;9.620;2022-10-26T05:02:44;22.67;;;17.98;;
61741;SDS011;47650;49.848;9.620;2022-10-26T05:05:09;27.30;;;17.83;;
61741;SDS011;47650;49.848;9.620;2022-10-26T05:07:35;24.33;;;16.30;;
61741;SDS011;47650;49.848;9.620;2022-10-26T05:10:01;25.10;;;18.52;;
61741;SDS011;47650;49.848;9.620;2022-10-26T05:12:27;33.83;;;20.50;;
61741;SDS011;47650;49.848;9.620;2022-10-26T05:14:52;35.38;;;21.35;;
61741;SDS011;47650;49.848;9.620;2022-10-26T05:17:22;40.08;;;22.85;;
61741;SDS011;47650;49.848;9.620;2022-10-26T05:19:48;29.13;;;19.13;;
61741;SDS011;47650;49.848;9.620;2022-10-26T05:22:19;28.65;;;17.98;;
61741;SDS011;47650;49.848;9.620;2022-10-26T05:24:44;34.45;;;22.85;;
61741;SDS011;47650;49.848;9.620;2022-10-26T05:27:09;31.20;;;18.10;;
61741;SDS011;47650;49.848;9.620;2022-10-26T05:29:35;38.25;;;24.70;;
61741;SDS011;47650;49.848;9.620;2022-10-26T05:32:00;38.45;;;21.05;;
61741;SDS011;47650;49.848;9.620;2022-10-26T05:34:26;42.28;;;23.58;;
61741;SDS011;47650;49.848;9.620;2022-10-26T05:36:52;41.53;;;24.52;;
61741;SDS011;47650;49.848;9.620;2022-10-26T05:39:18;29.67;;;20.23;;
61741;SDS011;47650;49.848;9.620;2022-10-26T05:41:43;49.80;;;25.20;;
61741;SDS011;47650;49.848;9.620;2022-10-26T05:44:09;38.92;;;23.95;;
61741;SDS011;47650;49.848;9.620;2022-10-26T05:46:34;38.65;;;24.90;;
61741;SDS011;47650;49.848;9.620;2022-10-26T05:48:59;32.80;;;21.88;;
61741;SDS011;47650;49.848;9.620;2022-10-26T05:51:25;28.15;;;19.63;;
61741;SDS011;47650;49.848;9.620;2022-10-26T05:53:50;23.83;;;17.00;;
61741;SDS011;47650;49.848;9.620;2022-10-26T05:56:20;36.70;;;19.95;;
61741;SDS011;47650;49.848;9.620;2022-10-26T05:58:58;25.00;;;17.40;;
61741;SDS011;47650;49.848;9.620;2022-10-26T06:01:43;26.63;;;18.15;;
61741;SDS011;47650;49.848;9.620;2022-10-26T06:04:46;34.85;;;22.20;;
61741;SDS011;47650;49.848;9.620;2022-10-26T06:07:16;23.23;;;17.23;;
61741;SDS011;47650;49.848;9.620;2022-10-26T06:09:42;26.33;;;17.90;;
61741;SDS011;47650;49.848;9.620;2022-10-26T06:12:08;24.33;;;17.30;;
61741;SDS011;47650;49.848;9.620;2022-10-26T06:14:34;39.40;;;22.38;;
61741;SDS011;47650;49.848;9.620;2022-10-26T06:22:48;35.45;;;23.23;;
61741;SDS011;47650;49.848;9.620;2022-10-26T06:25:26;36.83;;;21.00;;
61741;SDS011;47650;49.848;9.620;2022-10-26T06:30:34;47.63;;;25.65;;
61741;SDS011;47650;49.848;9.620;2022-10-26T06:32:59;30.95;;;20.42;;
61741;SDS011;47650;49.848;9.620;2022-10-26T06:38:08;39.97;;;23.17;;
61741;SDS011;47650;49.848;9.620;2022-10-26T06:40:38;24.88;;;18.48;;
61741;SDS011;47650;49.848;9.620;2022-10-26T06:43:17;39.50;;;24.45;;
61741;SDS011;47650;49.848;9.620;2022-10-26T06:45:49;25.73;;;18.67;;
61741;SDS011;47650;49.848;9.620;2022-10-26T06:48:25;44.63;;;25.77;;
61741;SDS011;47650;49.848;9.620;2022-10-26T06:50:53;24.48;;;17.67;;
61741;SDS011;47650;49.848;9.620;2022-10-26T06:53:29;32.60;;;20.40;;
61741;SDS011;47650;49.848;9.620;2022-10-26T06:56:03;21.95;;;15.70;;
61741;SDS011;47650;49.848;9.620;2022-10-26T06:58:32;22.92;;;15.70;;
61741;SDS011;47650;49.848;9.620;2022-10-26T07:01:00;29.10;;;22.35;;
61741;SDS011;47650;49.848;9.620;2022-10-26T07:03:26;23.73;;;17.95;;
61741;SDS011;47650;49.848;9.620;2022-10-26T07:05:57;15.52;;;13.43;;
61741;SDS011;47650;49.848;9.620;2022-10-26T07:08:28;25.88;;;16.98;;
61741;SDS011;47650;49.848;9.620;2022-10-26T07:10:57;19.80;;;15.40;;
61741;SDS011;47650;49.848;9.620;2022-10-26T07:13:22;15.70;;;13.10;;
61741;SDS011;47650;49.848;9.620;2022-10-26T07:15:48;14.23;;;12.13;;
61741;SDS011;47650;49.848;9.620;2022-10-26T07:18:13;14.25;;;12.73;;
61741;SDS011;47650;49.848;9.620;2022-10-26T07:20:40;20.42;;;13.18;;
61741;SDS011;47650;49.848;9.620;2022-10-26T07:23:06;13.05;;;11.27;;
61741;SDS011;47650;49.848;9.620;2022-10-26T07:25:34;15.55;;;12.95;;
61741;SDS011;47650;49.848;9.620;2022-10-26T07:28:02;13.10;;;11.80;;
61741;SDS011;47650;49.848;9.620;2022-10-26T07:30:29;11.98;;;10.23;;
61741;SDS011;47650;49.848;9.620;2022-10-26T07:33:01;14.27;;;11.20;;
61741;SDS011;47650;49.848;9.620;2022-10-26T07:35:37;13.80;;;11.52;;
61741;SDS011;47650;49.848;9.620;2022-10-26T07:38:03;11.13;;;9.98;;
61741;SDS011;47650;49.848;9.620;2022-10-26T07:40:29;12.70;;;10.00;;
61741;SDS011;47650;49.848;9.620;2022-10-26T07:42:56;13.65;;;10.50;;
61741;SDS011;47650;49.848;9.620;2022-10-26T07:45:22;10.77;;;8.50;;
61741;SDS011;47650;49.848;9.620;2022-10-26T07:47:48;10.43;;;7.75;;
61741;SDS011;47650;49.848;9.620;2022-10-26T07:50:15;10.32;;;8.57;;
61741;SDS011;47650;49.848;9.620;2022-10-26T07:52:41;11.88;;;7.78;;
61741;SDS011;47650;49.848;9.620;2022-10-26T07:55:07;9.25;;;7.88;;
61741;SDS011;47650;49.848;9.620;2022-10-26T07:57:33;10.38;;;7.72;;
61741;SDS011;47650;49.848;9.620;2022-10-26T07:59:59;8.15;;;7.20;;
61741;SDS011;47650;49.848;9.620;2022-10-26T08:02:24;10.60;;;6.22;;
61741;SDS011;47650;49.848;9.620;2022-10-26T08:04:50;8.25;;;6.03;;
61741;SDS011;47650;49.848;9.620;2022-10-26T08:07:15;7.07;;;5.40;;
61741;SDS011;47650;49.848;9.620;2022-10-26T08:09:40;6.68;;;5.07;;
61741;SDS011;47650;49.848;9.620;2022-10-26T08:12:06;10.05;;;5.50;;
61741;SDS011;47650;49.848;9.620;2022-10-26T08:14:31;6.15;;;5.00;;
61741;SDS011;47650;49.848;9.620;2022-10-26T08:16:56;6.97;;;5.35;;
61741;SDS011;47650;49.848;9.620;2022-10-26T08:19:23;7.40;;;5.45;;
61741;SDS011;47650;49.848;9.620;2022-10-26T08:21:49;5.78;;;5.20;;
61741;SDS011;47650;49.848;9.620;2022-10-26T08:24:14;8.82;;;4.72;;
61741;SDS011;47650;49.848;9.620;2022-10-26T08:26:40;5.65;;;4.68;;
61741;SDS011;47650;49.848;9.620;2022-10-26T08:29:05;9.40;;;5.03;;
61741;SDS011;47650;49.848;9.620;2022-10-26T08:31:31;7.60;;;5.35;;
61741;SDS011;47650;49.848;9.620;2022-10-26T08:33:57;10.20;;;5.70;;
61741;SDS011;47650;49.848;9.620;2022-10-26T08:36:23;6.70;;;5.13;;
61741;SDS011;47650;49.848;9.620;2022-10-26T08:38:50;6.18;;;4.60;;
61741;SDS011;47650;49.848;9.620;2022-10-26T08:41:16;10.32;;;4.18;;
61741;SDS011;47650;49.848;9.620;2022-10-26T08:43:47;7.47;;;4.82;;
61741;SDS011;47650;49.848;9.620;2022-10-26T08:46:34;7.28;;;4.82;;
61741;SDS011;47650;49.848;9.620;2022-10-26T08:49:14;10.32;;;4.20;;
61741;SDS011;47650;49.848;9.620;2022-10-26T08:51:46;6.57;;;3.80;;
61741;SDS011;47650;49.848;9.620;2022-10-26T08:54:16;6.65;;;4.68;;
61741;SDS011;47650;49.848;9.620;2022-10-26T08:56:51;9.57;;;4.25;;
61741;SDS011;47650;49.848;9.620;2022-10-26T08:59:39;6.65;;;4.10;;
61741;SDS011;47650;49.848;9.620;2022-10-26T09:02:39;8.30;;;5.25;;
61741;SDS011;47650;49.848;9.620;2022-10-26T09:05:07;10.68;;;5.10;;
61741;SDS011;47650;49.848;9.620;2022-10-26T09:07:47;6.50;;;4.50;;
61741;SDS011;47650;49.848;9.620;2022-10-26T09:15:51;9.65;;;4.43;;
61741;SDS011;47650;49.848;9.620;2022-10-26T09:18:30;7.82;;;4.65;;
61741;SDS011;47650;49.848;9.620;2022-10-26T09:21:11;8.32;;;4.60;;
61741;SDS011;47650;49.848;9.620;2022-10-26T09:26:44;7.13;;;4.93;;
61741;SDS011;47650;49.848;9.620;2022-10-26T09:29:22;9.32;;;5.00;;
61741;SDS011;47650;49.848;9.620;2022-10-26T09:31:51;8.60;;;4.88;;
61741;SDS011;47650;49.848;9.620;2022-10-26T09:34:27;8.48;;;4.65;;
61741;SDS011;47650;49.848;9.620;2022-10-26T09:36:58;10.15;;;4.97;;
61741;SDS011;47650;49.848;9.620;2022-10-26T09:42:15;5.85;;;4.22;;
61741;SDS011;47650;49.848;9.620;2022-10-26T09:45:17;9.25;;;4.65;;
61741;SDS011;47650;49.848;9.620;2022-10-26T09:48:05;7.30;;;3.90;;
61741;SDS011;47650;49.848;9.620;2022-10-26T09:50:38;5.72;;;3.80;;
61741;SDS011;47650;49.848;9.620;2022-10-26T09:53:06;6.95;;;4.15;;
61741;SDS011;47650;49.848;9.620;2022-10-26T09:55:32;8.10;;;4.32;;
61741;SDS011;47650;49.848;9.620;2022-10-26T09:58:03;9.43;;;5.20;;
61741;SDS011;47650;49.848;9.620;2022-10-26T10:03:01;6.60;;;4.20;;
61741;SDS011;47650;49.848;9.620;2022-10-26T10:05:33;8.95;;;4.68;;
61741;SDS011;47650;49.848;9.620;2022-10-26T10:13:28;9.68;;;4.32;;
61741;SDS011;47650;49.848;9.620;2022-10-26T10:16:41;8.98;;;4.00;;
61741;SDS011;47650;49.848;9.620;2022-10-26T10:18:56;9.75;;;4.75;;
61741;SDS011;47650;49.848;9.620;2022-10-26T10:24:01;5.80;;;4.13;;
61741;SDS011;47650;49.848;9.620;2022-10-26T10:26:26;10.48;;;4.13;;
61741;SDS011;47650;49.848;9.620;2022-10-26T10:28:59;8.40;;;3.88;;
61741;SDS011;47650;49.848;9.620;2022-10-26T10:31:26;7.68;;;3.97;;
61741;SDS011;47650;49.848;9.620;2022-10-26T10:33:53;8.60;;;3.60;;
61741;SDS011;47650;49.848;9.620;2022-10-26T10:36:19;9.18;;;3.50;;
61741;SDS011;47650;49.848;9.620;2022-10-26T10:38:48;5.32;;;3.60;;
61741;SDS011;47650;49.848;9.620;2022-10-26T10:41:19;5.15;;;3.35;;
61741;SDS011;47650;49.848;9.620;2022-10-26T10:44:05;5.30;;;3.72;;
61741;SDS011;47650;49.848;9.620;2022-10-26T10:46:39;6.93;;;4.20;;
61741;SDS011;47650;49.848;9.620;2022-10-26T10:49:15;8.30;;;3.95;;
61741;SDS011;47650;49.848;9.620;2022-10-26T10:51:44;4.85;;;3.05;;
61741;SDS011;47650;49.848;9.620;2022-10-26T10:54:21;8.00;;;3.45;;
61741;SDS011;47650;49.848;9.620;2022-10-26T10:56:52;8.50;;;3.30;;
61741;SDS011;47650;49.848;9.620;2022-10-26T11:07:54;5.05;;;3.00;;
61741;SDS011;47650;49.848;9.620;2022-10-26T11:10:30;5.38;;;3.00;;
61741;SDS011;47650;49.848;9.620;2022-10-26T11:13:04;5.47;;;3.20;;
61741;SDS011;47650;49.848;9.620;2022-10-26T11:15:38;8.15;;;3.67;;
61741;SDS011;47650;49.848;9.620;2022-10-26T11:21:18;6.18;;;2.80;;
61741;SDS011;47650;49.848;9.620;2022-10-26T11:32:00;6.15;;;2.85;;
61741;SDS011;47650;49.848;9.620;2022-10-26T11:34:36;6.15;;;3.05;;
61741;SDS011;47650;49.848;9.620;2022-10-26T11:37:08;9.10;;;2.90;;
61741;SDS011;47650;49.848;9.620;2022-10-26T11:39:50;5.93;;;2.92;;
61741;SDS011;47650;49.848;9.620;2022-10-26T11:42:35;4.72;;;2.83;;
61741;SDS011;47650;49.848;9.620;2022-10-26T11:47:50;8.52;;;2.97;;
61741;SDS011;47650;49.848;9.620;2022-10-26T11:50:22;4.35;;;2.60;;
61741;SDS011;47650;49.848;9.620;2022-10-26T11:52:57;5.07;;;2.78;;
61741;SDS011;47650;49.848;9.620;2022-10-26T11:55:28;8.48;;;2.90;;
61741;SDS011;47650;49.848;9.620;2022-10-26T11:57:53;4.57;;;2.70;;
61741;SDS011;47650;49.848;9.620;2022-10-26T12:00:20;5.45;;;2.75;;
61741;SDS011;47650;49.848;9.620;2022-10-26T12:03:29;6.63;;;2.80;;
61741;SDS011;47650;49.848;9.620;2022-10-26T12:05:48;5.55;;;3.47;;
61741;SDS011;47650;49.848;9.620;2022-10-26T12:13:58;5.03;;;3.08;;
61741;SDS011;47650;49.848;9.620;2022-10-26T12:16:40;6.07;;;2.92;;
61741;SDS011;47650;49.848;9.620;2022-10-26T12:19:21;6.40;;;2.33;;
61741;SDS011;47650;49.848;9.620;2022-10-26T12:21:55;5.15;;;3.00;;
61741;SDS011;47650;49.848;9.620;2022-10-26T12:26:56;5.30;;;2.50;;
61741;SDS011;47650;49.848;9.620;2022-10-26T12:29:25;5.07;;;2.58;;
61741;SDS011;47650;49.848;9.620;2022-10-26T12:31:55;6.82;;;2.60;;
61741;SDS011;47650;49.848;9.620;2022-10-26T12:39:27;6.77;;;2.67;;
61741;SDS011;47650;49.848;9.620;2022-10-26T12:41:56;7.28;;;2.97;;
61741;SDS011;47650;49.848;9.620;2022-10-26T12:47:05;4.93;;;2.60;;
61741;SDS011;47650;49.848;9.620;2022-10-26T12:57:39;4.45;;;1.88;;
61741;SDS011;47650;49.848;9.620;2022-10-26T13:00:17;4.40;;;2.13;;
61741;SDS011;47650;49.848;9.620;2022-10-26T13:08:27;4.35;;;1.70;;
61741;SDS011;47650;49.848;9.620;2022-10-26T13:11:03;3.60;;;1.67;;
61741;SDS011;47650;49.848;9.620;2022-10-26T13:13:32;6.15;;;2.33;;
61741;SDS011;47650;49.848;9.620;2022-10-26T13:16:09;5.40;;;1.70;;
61741;SDS011;47650;49.848;9.620;2022-10-26T13:18:43;3.53;;;1.85;;
61741;SDS011;47650;49.848;9.620;2022-10-26T13:21:13;6.22;;;2.22;;
61741;SDS011;47650;49.848;9.620;2022-10-26T13:23:43;7.43;;;2.58;;
61741;SDS011;47650;49.848;9.620;2022-10-26T13:26:14;6.82;;;2.33;;
61741;SDS011;47650;49.848;9.620;2022-10-26T13:28:42;6.10;;;1.80;;
61741;SDS011;47650;49.848;9.620;2022-10-26T13:33:55;5.88;;;2.20;;
61741;SDS011;47650;49.848;9.620;2022-10-26T13:36:28;6.80;;;2.53;;
61741;SDS011;47650;49.848;9.620;2022-10-26T13:38:58;6.63;;;2.47;;
61741;SDS011;47650;49.848;9.620;2022-10-26T13:41:47;5.18;;;2.45;;
61741;SDS011;47650;49.848;9.620;2022-10-26T13:45:18;5.82;;;2.63;;
61741;SDS011;47650;49.848;9.620;2022-10-26T13:49:51;6.53;;;1.90;;
61741;SDS011;47650;49.848;9.620;2022-10-26T13:52:22;5.28;;;2.47;;
61741;SDS011;47650;49.848;9.620;2022-10-26T13:54:57;6.07;;;2.58;;
61741;SDS011;47650;49.848;9.620;2022-10-26T13:57:39;8.93;;;1.80;;
61741;SDS011;47650;49.848;9.620;2022-10-26T14:00:14;7.25;;;2.47;;
61741;SDS011;47650;49.848;9.620;2022-10-26T14:02:43;5.05;;;2.10;;
61741;SDS011;47650;49.848;9.620;2022-10-26T14:05:12;6.93;;;1.95;;
61741;SDS011;47650;49.848;9.620;2022-10-26T14:07:43;5.82;;;1.90;;
61741;SDS011;47650;49.848;9.620;2022-10-26T14:13:07;10.13;;;2.45;;
61741;SDS011;47650;49.848;9.620;2022-10-26T14:15:37;4.88;;;3.05;;
61741;SDS011;47650;49.848;9.620;2022-10-26T14:18:14;7.45;;;2.53;;
61741;SDS011;47650;49.848;9.620;2022-10-26T14:20:46;4.25;;;1.85;;
61741;SDS011;47650;49.848;9.620;2022-10-26T14:23:28;6.88;;;2.10;;
61741;SDS011;47650;49.848;9.620;2022-10-26T14:25:56;4.60;;;2.05;;
61741;SDS011;47650;49.848;9.620;2022-10-26T14:28:22;6.32;;;2.67;;
61741;SDS011;47650;49.848;9.620;2022-10-26T14:30:52;5.90;;;2.30;;
61741;SDS011;47650;49.848;9.620;2022-10-26T14:33:25;4.68;;;2.00;;
61741;SDS011;47650;49.848;9.620;2022-10-26T14:35:52;4.68;;;1.90;;
61741;SDS011;47650;49.848;9.620;2022-10-26T14:38:25;3.72;;;1.90;;
61741;SDS011;47650;49.848;9.620;2022-10-26T14:40:56;5.18;;;2.50;;
61741;SDS011;47650;49.848;9.620;2022-10-26T14:43:22;5.50;;;1.98;;
61741;SDS011;47650;49.848;9.620;2022-10-26T14:45:50;5.30;;;2.00;;
61741;SDS011;47650;49.848;9.620;2022-10-26T14:48:21;7.90;;;2.72;;
61741;SDS011;47650;49.848;9.620;2022-10-26T14:53:48;6.75;;;2.08;;
61741;SDS011;47650;49.848;9.620;2022-10-26T14:59:07;7.05;;;2.10;;
61741;SDS011;47650;49.848;9.620;2022-10-26T15:07:08;6.22;;;1.90;;
61741;SDS011;47650;49.848;9.620;2022-10-26T15:09:41;7.32;;;1.90;;
61741;SDS011;47650;49.848;9.620;2022-10-26T15:12:35;4.38;;;2.10;;
61741;SDS011;47650;49.848;9.620;2022-10-26T15:17:42;7.65;;;2.00;;
61741;SDS011;47650;49.848;9.620;2022-10-26T15:20:19;7.63;;;2.03;;
61741;SDS011;47650;49.848;9.620;2022-10-26T15:22:51;4.05;;;2.00;;
61741;SDS011;47650;49.848;9.620;2022-10-26T15:25:22;5.93;;;2.22;;
61741;SDS011;47650;49.848;9.620;2022-10-26T15:27:50;6.80;;;2.70;;
61741;SDS011;47650;49.848;9.620;2022-10-26T15:32:46;6.38;;;3.13;;
61741;SDS011;47650;49.848;9.620;2022-10-26T15:37:49;6.38;;;2.13;;
61741;SDS011;47650;49.848;9.620;2022-10-26T15:40:23;9.27;;;2.38;;
61741;SDS011;47650;49.848;9.620;2022-10-26T15:42:51;7.22;;;2.45;;
61741;SDS011;47650;49.848;9.620;2022-10-26T15:45:27;6.47;;;2.20;;
61741;SDS011;47650;49.848;9.620;2022-10-26T15:47:56;7.53;;;2.60;;
61741;SDS011;47650;49.848;9.620;2022-10-26T15:50:25;5.13;;;2.50;;
61741;SDS011;47650;49.848;9.620;2022-10-26T15:52:59;5.47;;;2.40;;
61741;SDS011;47650;49.848;9.620;2022-10-26T15:55:27;6.03;;;2.17;;
61741;SDS011;47650;49.848;9.620;2022-10-26T15:57:55;5.10;;;2.10;;
61741;SDS011;47650;49.848;9.620;2022-10-26T16:00:20;6.78;;;2.28;;
61741;SDS011;47650;49.848;9.620;2022-10-26T16:02:48;7.35;;;2.03;;
61741;SDS011;47650;49.848;9.620;2022-10-26T16:05:14;9.15;;;5.35;;
61741;SDS011;47650;49.848;9.620;2022-10-26T16:07:42;8.85;;;4.05;;
61741;SDS011;47650;49.848;9.620;2022-10-26T16:10:13;9.40;;;4.60;;
61741;SDS011;47650;49.848;9.620;2022-10-26T16:12:41;7.00;;;3.80;;
61741;SDS011;47650;49.848;9.620;2022-10-26T16:15:07;8.45;;;3.78;;
61741;SDS011;47650;49.848;9.620;2022-10-26T16:17:39;8.27;;;3.90;;
61741;SDS011;47650;49.848;9.620;2022-10-26T16:20:04;10.57;;;4.05;;
61741;SDS011;47650;49.848;9.620;2022-10-26T16:22:30;9.00;;;3.55;;
61741;SDS011;47650;49.848;9.620;2022-10-26T16:24:55;13.13;;;3.72;;
61741;SDS011;47650;49.848;9.620;2022-10-26T16:27:20;7.40;;;4.03;;
61741;SDS011;47650;49.848;9.620;2022-10-26T16:29:46;9.90;;;4.22;;
61741;SDS011;47650;49.848;9.620;2022-10-26T16:32:12;7.38;;;4.25;;
61741;SDS011;47650;49.848;9.620;2022-10-26T16:34:38;8.82;;;4.75;;
61741;SDS011;47650;49.848;9.620;2022-10-26T16:37:03;13.77;;;4.07;;
61741;SDS011;47650;49.848;9.620;2022-10-26T16:39:29;11.88;;;4.32;;
61741;SDS011;47650;49.848;9.620;2022-10-26T16:41:54;8.57;;;3.47;;
61741;SDS011;47650;49.848;9.620;2022-10-26T16:44:22;12.77;;;4.10;;
61741;SDS011;47650;49.848;9.620;2022-10-26T16:46:48;8.48;;;3.05;;
61741;SDS011;47650;49.848;9.620;2022-10-26T16:49:14;10.15;;;3.20;;
61741;SDS011;47650;49.848;9.620;2022-10-26T16:51:39;11.00;;;4.40;;
61741;SDS011;47650;49.848;9.620;2022-10-26T16:54:04;10.68;;;3.42;;
61741;SDS011;47650;49.848;9.620;2022-10-26T16:56:30;9.65;;;3.38;;
61741;SDS011;47650;49.848;9.620;2022-10-26T16:58:55;7.07;;;3.13;;
61741;SDS011;47650;49.848;9.620;2022-10-26T17:01:21;11.23;;;3.20;;
61741;SDS011;47650;49.848;9.620;2022-10-26T17:03:49;6.05;;;2.80;;
61741;SDS011;47650;49.848;9.620;2022-10-26T17:06:15;10.95;;;3.00;;
61741;SDS011;47650;49.848;9.620;2022-10-26T17:08:43;10.77;;;3.33;;
61741;SDS011;47650;49.848;9.620;2022-10-26T17:11:09;8.52;;;3.30;;
61741;SDS011;47650;49.848;9.620;2022-10-26T17:13:40;9.68;;;3.33;;